Decoded Metar for LFRL (LANVEDOC in FRANCE) (IATA:N/A) | Meteo·Mobile Aviation Weather
aviador You're here:

LFRL Decoded Metar

LANVEDOC in FRANCE
Report Time2019-11-16 00:30:00
UTC Time2019-11-16 01:01:39
Flight Rules vfr VFR
Wind330° at 11 kt
W.Decomp.*RWY 05: 2.5 kt HW 10.7 kt LCW
Visibility9999 m
Phenomena:N/A
Clouds:N/A
Expected CloudBase > 1,200 ft AGL from Temp-Dew spread
CeilingNone
Temp08°C (ISA -6)
Dew Point05°C (82% RH)
AAT2.9°C
QNH1005 hPa
Density Alt-115 ft
Elevation269 ft
Report Wrong Elevation
Raw Report
METAR LFRL 160030Z AUTO 33011KT CAVOK 08/05 Q1005=

Extra information for LFRL:More info

Metar Taf Metar & Taf Last 4 Metars F.Rules Stats Wind Profile Meteogram Temp Stats Airport Information Weather charts Add Link Nearby VenuesMetar ALERT Operation Metar Decoded Social comments